Time;durP1;ratioP1;P1;durP2;ratioP2;P2;SDS_P1;SDS_P2;PMS_P1;PMS_P2;Temp;Humidity;BMP_temperature;BMP_pressure;BME280_temperature;BME280_humidity;BME280_pressure;Samples;Min_cycle;Max_cycle;Signal;HPM_P1;HPM_P2
2022/09/06 00:00:37;;;;;;;6.63;3.35;;;20.60;99.90;;;;;;4997366;28;20100;-88
2022/09/06 00:03:03;;;;;;;6.80;3.40;;;20.50;99.90;;;;;;5015000;28;20050;-89
2022/09/06 00:05:30;;;;;;;7.63;3.65;;;20.50;99.90;;;;;;4997444;28;20046;-88
2022/09/06 00:08:00;;;;;;;8.43;3.90;;;20.40;99.90;;;;;;4997473;28;20106;-89
2022/09/06 00:10:28;;;;;;;7.43;3.70;;;20.30;99.90;;;;;;4996997;28;20068;-88
2022/09/06 00:12:53;;;;;;;8.15;3.67;;;20.20;99.90;;;;;;5014994;28;20056;-89
2022/09/06 00:15:21;;;;;;;5.88;3.30;;;20.10;99.90;;;;;;4981236;28;20054;-89
2022/09/06 00:17:47;;;;;;;8.35;3.70;;;20.00;99.90;;;;;;4981370;28;20534;-89
2022/09/06 00:20:13;;;;;;;5.57;3.50;;;20.00;99.90;;;;;;4981281;28;20408;-90
2022/09/06 00:22:40;;;;;;;8.30;3.83;;;19.90;99.90;;;;;;4997005;28;20057;-89
2022/09/06 00:25:06;;;;;;;6.72;3.60;;;19.90;99.90;;;;;;4980608;28;20042;-90
2022/09/06 00:27:32;;;;;;;5.05;3.40;;;19.80;99.90;;;;;;4964991;28;20107;-89
2022/09/06 00:29:58;;;;;;;6.95;3.88;;;19.80;99.90;;;;;;4981061;28;20483;-88
2022/09/06 00:32:24;;;;;;;9.65;3.40;;;19.80;99.90;;;;;;4996605;28;20048;-88
2022/09/06 00:34:49;;;;;;;5.72;3.63;;;19.80;99.90;;;;;;4996969;28;20105;-89
2022/09/06 00:37:15;;;;;;;6.60;3.90;;;19.80;99.90;;;;;;4996691;28;20045;-88
2022/09/06 00:39:41;;;;;;;7.50;3.65;;;19.80;99.90;;;;;;4996582;28;20061;-89
2022/09/06 00:42:11;;;;;;;7.18;3.58;;;19.70;99.90;;;;;;4963941;28;20447;-89
2022/09/06 00:44:37;;;;;;;5.35;3.30;;;19.70;99.90;;;;;;4996947;28;20471;-89
2022/09/06 00:47:05;;;;;;;5.78;4.00;;;19.70;99.90;;;;;;4996739;28;20049;-89
2022/09/06 00:49:35;;;;;;;5.47;3.60;;;19.60;99.90;;;;;;4996643;28;20480;-89
2022/09/06 00:52:04;;;;;;;8.95;3.67;;;19.60;99.90;;;;;;4996745;28;20060;-89
2022/09/06 00:54:31;;;;;;;4.93;3.72;;;19.60;99.90;;;;;;4980254;28;20042;-89
2022/09/06 00:56:57;;;;;;;7.43;3.53;;;19.60;99.90;;;;;;4996674;28;20133;-88
2022/09/06 00:59:28;;;;;;;5.90;4.00;;;19.60;99.90;;;;;;4980520;28;20046;-89
2022/09/06 01:01:54;;;;;;;6.93;4.03;;;19.60;99.90;;;;;;4980304;28;20053;-89
2022/09/06 01:04:20;;;;;;;6.07;3.95;;;19.60;99.90;;;;;;5013623;28;20052;-89
2022/09/06 01:07:21;;;;;;;5.82;3.88;;;19.60;99.90;;;;;;4980270;28;20065;-89
2022/09/06 01:10:34;;;;;;;11.25;4.43;;;19.50;99.90;;;;;;4978204;28;20045;-89
2022/09/06 01:13:12;;;;;;;5.85;4.10;;;19.50;99.90;;;;;;4976802;28;20506;-89
2022/09/06 01:16:05;;;;;;;7.55;4.10;;;19.50;99.90;;;;;;4979495;28;20108;-89
2022/09/06 01:19:04;;;;;;;4.55;3.95;;;19.50;99.90;;;;;;4995444;28;20038;-89
2022/09/06 01:21:53;;;;;;;7.05;4.28;;;19.40;99.90;;;;;;4995431;28;20403;-90
2022/09/06 01:24:40;;;;;;;7.32;4.07;;;19.50;99.90;;;;;;4979238;28;20096;-89
2022/09/06 01:27:31;;;;;;;7.13;4.18;;;19.40;99.90;;;;;;4995514;28;20046;-90
2022/09/06 01:30:06;;;;;;;6.63;4.28;;;19.40;99.90;;;;;;4995081;28;20081;-90
2022/09/06 01:33:14;;;;;;;12.57;4.22;;;19.40;99.90;;;;;;4994730;28;20046;-88
2022/09/06 01:35:49;;;;;;;6.55;4.22;;;19.40;99.90;;;;;;5012552;28;20489;-89
2022/09/06 01:38:16;;;;;;;7.18;3.92;;;19.40;99.90;;;;;;4995278;28;20045;-89
2022/09/06 01:40:41;;;;;;;7.00;4.43;;;19.40;99.90;;;;;;4979115;28;20092;-89
2022/09/06 01:43:16;;;;;;;9.73;4.28;;;19.40;99.90;;;;;;4979076;28;20046;-89
2022/09/06 01:46:13;;;;;;;5.88;4.10;;;19.40;99.90;;;;;;4995181;28;20117;-89
2022/09/06 01:48:59;;;;;;;5.82;4.30;;;19.40;99.90;;;;;;4994938;28;20041;-89
2022/09/06 01:52:05;;;;;;;7.35;4.78;;;19.40;99.90;;;;;;4995189;28;20054;-89
2022/09/06 01:54:50;;;;;;;6.35;4.15;;;19.30;99.90;;;;;;4993755;28;20046;-89
2022/09/06 01:57:51;;;;;;;5.82;4.70;;;19.30;99.90;;;;;;4995161;28;20054;-90
2022/09/06 02:00:19;;;;;;;5.57;4.38;;;19.30;99.90;;;;;;4995055;28;20081;-89
2022/09/06 02:03:04;;;;;;;7.38;4.18;;;19.30;99.90;;;;;;4994412;28;20496;-90
2022/09/06 02:05:49;;;;;;;6.72;4.38;;;19.20;99.90;;;;;;4978540;28;20046;-90
2022/09/06 02:08:25;;;;;;;8.70;4.32;;;19.20;99.90;;;;;;5012342;28;20137;-89
2022/09/06 02:11:05;;;;;;;5.23;4.33;;;19.20;99.90;;;;;;4957245;28;1094635;-89
2022/09/06 02:13:59;;;;;;;6.60;4.43;;;19.20;99.90;;;;;;4995334;28;20521;-88
2022/09/06 02:16:28;;;;;;;5.57;4.10;;;19.20;99.90;;;;;;4978032;28;20153;-90
2022/09/06 02:18:57;;;;;;;7.13;4.28;;;19.20;99.90;;;;;;4995403;28;20133;-89
2022/09/06 02:21:29;;;;;;;7.78;3.85;;;19.20;99.90;;;;;;4995649;28;20103;-88
2022/09/06 02:23:59;;;;;;;6.68;4.00;;;19.20;99.90;;;;;;4963267;28;20050;-88
2022/09/06 02:26:29;;;;;;;6.30;4.53;;;19.20;99.90;;;;;;4979158;28;20404;-88
2022/09/06 02:28:55;;;;;;;11.75;4.32;;;19.20;99.90;;;;;;4995554;28;20042;-88
2022/09/06 02:31:24;;;;;;;6.40;4.22;;;19.20;99.90;;;;;;4979101;28;20042;-88
2022/09/06 02:33:50;;;;;;;5.70;4.20;;;19.30;99.90;;;;;;4979170;28;20134;-89
2022/09/06 02:36:17;;;;;;;7.15;4.07;;;19.30;99.90;;;;;;4995271;28;20064;-89
2022/09/06 02:38:44;;;;;;;4.75;3.88;;;19.30;99.90;;;;;;4995111;28;20056;-87
2022/09/06 02:41:12;;;;;;;7.65;3.80;;;19.30;99.90;;;;;;4962895;28;20054;-89
2022/09/06 02:43:39;;;;;;;4.75;3.83;;;19.30;99.90;;;;;;4995403;28;20112;-88
2022/09/06 02:46:04;;;;;;;7.70;4.53;;;19.30;99.90;;;;;;4995228;28;20073;-88
2022/09/06 02:48:30;;;;;;;6.20;3.90;;;19.40;99.90;;;;;;4995224;28;20041;-88
2022/09/06 02:50:56;;;;;;;8.18;4.32;;;19.40;99.90;;;;;;4979053;28;20046;-88
2022/09/06 02:53:22;;;;;;;6.60;4.00;;;19.40;99.90;;;;;;4995305;28;20129;-88
2022/09/06 02:55:48;;;;;;;7.72;4.32;;;19.40;99.90;;;;;;4978960;28;20053;-89
2022/09/06 02:58:14;;;;;;;5.97;3.95;;;19.40;99.90;;;;;;4979228;28;20073;-88
2022/09/06 03:00:40;;;;;;;6.40;4.00;;;19.40;99.90;;;;;;4978582;28;20061;-88
2022/09/06 03:03:06;;;;;;;8.65;5.20;;;19.40;99.90;;;;;;4962958;28;20050;-88
2022/09/06 03:05:32;;;;;;;6.45;3.95;;;19.40;99.90;;;;;;4979679;28;20068;-88
2022/09/06 03:07:58;;;;;;;7.03;4.40;;;19.40;99.90;;;;;;4982312;28;20471;-88
2022/09/06 03:10:25;;;;;;;6.22;4.07;;;19.40;99.90;;;;;;4982030;28;20058;-87
2022/09/06 03:12:51;;;;;;;10.50;4.57;;;19.40;99.90;;;;;;4998229;28;20592;-88
2022/09/06 03:15:17;;;;;;;8.35;4.43;;;19.40;99.90;;;;;;4998295;28;20037;-88
2022/09/06 03:17:43;;;;;;;5.80;4.43;;;19.40;99.90;;;;;;4998629;28;20050;-89
2022/09/06 03:20:10;;;;;;;6.47;4.43;;;19.30;99.90;;;;;;4998324;28;20049;-89
2022/09/06 03:22:36;;;;;;;6.00;4.55;;;19.30;99.90;;;;;;4997931;28;20045;-88
2022/09/06 03:25:02;;;;;;;5.68;4.50;;;19.30;99.90;;;;;;4998134;28;20042;-88
2022/09/06 03:27:28;;;;;;;8.40;4.90;;;19.30;99.90;;;;;;4966131;28;20042;-90
2022/09/06 03:29:54;;;;;;;6.88;5.10;;;19.30;99.90;;;;;;4998041;28;20132;-88
2022/09/06 03:32:20;;;;;;;7.78;5.07;;;19.30;99.90;;;;;;5015237;28;20058;-87
2022/09/06 03:34:45;;;;;;;7.13;5.13;;;19.30;99.90;;;;;;4965793;28;20037;-88
2022/09/06 03:37:11;;;;;;;13.85;5.63;;;19.30;99.90;;;;;;4997777;28;20052;-88
2022/09/06 03:39:37;;;;;;;7.32;5.28;;;19.30;99.90;;;;;;4965812;28;20046;-89
2022/09/06 03:42:02;;;;;;;6.80;5.22;;;19.30;99.90;;;;;;4982010;28;20050;-88
2022/09/06 03:44:28;;;;;;;7.45;6.18;;;19.20;99.90;;;;;;4981597;28;20050;-90
2022/09/06 03:46:54;;;;;;;7.25;5.50;;;19.20;99.90;;;;;;4997910;28;20056;-88
2022/09/06 03:49:19;;;;;;;8.07;5.25;;;19.20;99.90;;;;;;4998127;28;20046;-88
2022/09/06 03:51:45;;;;;;;6.88;5.72;;;19.20;99.90;;;;;;4997627;28;20049;-87
2022/09/06 03:54:11;;;;;;;9.43;5.93;;;19.20;99.90;;;;;;5015243;28;20061;-88
2022/09/06 03:56:36;;;;;;;10.02;5.90;;;19.20;99.90;;;;;;4997850;28;20046;-87
2022/09/06 03:59:02;;;;;;;8.40;5.57;;;19.10;99.90;;;;;;4981403;28;20144;-87
2022/09/06 04:01:28;;;;;;;11.35;6.35;;;19.10;99.90;;;;;;4981211;28;20041;-88
2022/09/06 04:03:53;;;;;;;9.85;6.25;;;19.10;99.90;;;;;;4981639;28;20452;-88
2022/09/06 04:06:19;;;;;;;8.63;6.22;;;19.00;99.90;;;;;;4997056;28;20502;-88
2022/09/06 04:08:45;;;;;;;11.07;6.72;;;19.00;99.90;;;;;;4965572;28;20054;-87
2022/09/06 04:11:13;;;;;;;7.32;5.65;;;18.90;99.90;;;;;;5017141;28;20196;-88
2022/09/06 04:13:42;;;;;;;9.05;6.07;;;18.80;99.90;;;;;;5017130;28;20146;-87
2022/09/06 04:16:10;;;;;;;8.55;5.70;;;18.80;99.90;;;;;;5000691;28;20092;-88
2022/09/06 04:18:36;;;;;;;8.93;6.03;;;18.70;99.90;;;;;;4984065;28;20049;-88
2022/09/06 04:21:02;;;;;;;9.77;6.55;;;18.70;99.90;;;;;;5000150;28;20399;-88
2022/09/06 04:23:28;;;;;;;8.65;7.22;;;18.70;99.90;;;;;;4984537;28;20053;-87
2022/09/06 04:25:55;;;;;;;8.25;6.00;;;18.60;99.90;;;;;;5016569;28;20132;-88
2022/09/06 04:28:22;;;;;;;9.93;6.78;;;18.60;99.90;;;;;;5000661;28;20045;-88
2022/09/06 04:30:53;;;;;;;8.40;7.60;;;18.60;99.90;;;;;;5000025;28;20049;-87
2022/09/06 04:33:19;;;;;;;15.23;8.27;;;18.60;99.90;;;;;;5000375;28;20053;-87
2022/09/06 04:35:49;;;;;;;14.02;8.95;;;18.50;99.90;;;;;;5016683;28;20531;-87
2022/09/06 04:38:14;;;;;;;9.68;8.63;;;18.30;99.90;;;;;;4984129;28;20053;-87
2022/09/06 04:40:40;;;;;;;11.20;8.70;;;18.20;99.90;;;;;;5000338;28;20048;-87
2022/09/06 04:43:06;;;;;;;10.93;9.68;;;18.20;99.90;;;;;;5016236;28;20107;-86
2022/09/06 04:45:31;;;;;;;13.93;9.15;;;18.10;99.90;;;;;;5016079;28;20045;-86
2022/09/06 04:47:57;;;;;;;11.65;10.48;;;18.10;99.90;;;;;;5016040;28;20080;-86
2022/09/06 04:50:23;;;;;;;13.50;10.60;;;18.00;99.90;;;;;;5000182;28;20048;-86
2022/09/06 04:52:48;;;;;;;15.70;10.60;;;17.90;99.90;;;;;;4967736;28;20441;-87
2022/09/06 04:55:14;;;;;;;12.30;10.10;;;17.90;99.90;;;;;;4999784;28;20041;-86
2022/09/06 04:57:40;;;;;;;13.18;9.45;;;17.80;99.90;;;;;;5016167;28;20041;-86
2022/09/06 05:00:06;;;;;;;16.10;11.50;;;17.80;99.90;;;;;;5000022;28;20372;-86
2022/09/06 05:02:32;;;;;;;14.73;11.40;;;17.80;99.90;;;;;;5013577;28;20072;-86
2022/09/06 05:04:57;;;;;;;9.57;8.68;;;17.80;99.90;;;;;;5015102;28;20418;-87
2022/09/06 05:07:26;;;;;;;15.82;12.52;;;17.70;99.90;;;;;;5015617;28;20057;-86
2022/09/06 05:09:51;;;;;;;13.23;11.68;;;17.70;99.90;;;;;;5006494;28;20457;-86
2022/09/06 05:12:17;;;;;;;14.48;12.20;;;17.70;99.90;;;;;;5013444;28;20129;-86
2022/09/06 05:14:43;;;;;;;15.80;12.50;;;17.60;99.90;;;;;;4995712;28;20380;-86
2022/09/06 05:17:08;;;;;;;16.15;12.05;;;17.60;99.90;;;;;;4949096;28;20086;-86
2022/09/06 05:19:34;;;;;;;14.88;12.15;;;17.60;99.90;;;;;;4944475;28;20053;-86
2022/09/06 05:22:00;;;;;;;12.18;10.98;;;17.50;99.90;;;;;;4960660;28;20440;-85
2022/09/06 05:24:25;;;;;;;23.75;13.70;;;17.50;99.90;;;;;;4960575;28;20377;-85
2022/09/06 05:26:51;;;;;;;20.33;12.27;;;17.40;99.90;;;;;;4960732;28;20129;-86
2022/09/06 05:29:17;;;;;;;19.25;12.32;;;17.40;99.90;;;;;;4973240;28;20050;-86
2022/09/06 05:31:45;;;;;;;17.35;13.75;;;17.30;99.90;;;;;;4969428;28;20061;-85
2022/09/06 05:34:12;;;;;;;15.00;12.35;;;17.30;99.90;;;;;;4978386;28;20136;-86
2022/09/06 05:36:38;;;;;;;19.65;12.90;;;17.20;99.90;;;;;;4977841;28;20069;-84
2022/09/06 05:39:04;;;;;;;13.25;11.85;;;17.20;99.90;;;;;;4985284;28;20069;-86
2022/09/06 05:41:31;;;;;;;13.77;12.13;;;17.10;99.90;;;;;;4986115;28;20038;-85
2022/09/06 05:43:59;;;;;;;15.73;12.00;;;17.00;99.90;;;;;;4978596;28;20050;-85
2022/09/06 05:46:25;;;;;;;14.68;12.88;;;17.00;99.90;;;;;;4968777;28;20034;-85
2022/09/06 05:48:56;;;;;;;14.98;13.43;;;17.00;99.90;;;;;;4969168;28;20129;-89
2022/09/06 05:51:23;;;;;;;15.57;13.10;;;17.00;99.90;;;;;;4995935;28;20041;-85
2022/09/06 05:53:48;;;;;;;18.80;12.77;;;17.00;99.90;;;;;;4995626;28;20097;-86
2022/09/06 05:56:15;;;;;;;16.92;12.70;;;17.10;99.90;;;;;;4995912;28;20088;-85
2022/09/06 05:58:41;;;;;;;14.55;13.05;;;17.10;99.90;;;;;;4995677;28;20503;-86
2022/09/06 06:01:21;;;;;;;15.52;11.73;;;17.10;99.90;;;;;;5010292;28;20088;-86
2022/09/06 06:03:59;;;;;;;15.23;12.35;;;17.20;99.90;;;;;;4979583;28;20138;-86
2022/09/06 06:06:26;;;;;;;15.80;13.65;;;17.20;99.90;;;;;;4995410;28;20089;-86
2022/09/06 06:08:52;;;;;;;14.68;12.73;;;17.20;99.90;;;;;;4980878;28;20460;-86
2022/09/06 06:11:19;;;;;;;16.88;12.98;;;17.20;99.90;;;;;;5015440;28;20099;-86
2022/09/06 06:13:44;;;;;;;15.25;11.30;;;17.20;99.90;;;;;;4998800;28;20056;-85
2022/09/06 06:16:13;;;;;;;15.55;13.23;;;17.20;99.90;;;;;;5032597;28;20124;-87
2022/09/06 06:18:39;;;;;;;16.17;12.93;;;17.30;99.90;;;;;;4999830;28;20053;-87
2022/09/06 06:21:29;;;;;;;14.57;13.07;;;17.30;99.90;;;;;;5032912;28;20045;-87
2022/09/06 06:23:57;;;;;;;15.48;13.98;;;17.40;99.90;;;;;;4998985;28;20483;-86
2022/09/06 06:26:23;;;;;;;17.95;14.30;;;17.50;99.90;;;;;;5015368;28;20096;-87
2022/09/06 06:28:50;;;;;;;15.63;14.02;;;17.60;99.90;;;;;;4999260;28;20045;-89
2022/09/06 06:31:16;;;;;;;14.07;12.68;;;17.70;99.90;;;;;;5015173;28;20045;-89
2022/09/06 06:33:43;;;;;;;11.85;10.75;;;17.70;99.90;;;;;;5015244;28;20095;-89
2022/09/06 06:36:29;;;;;;;14.90;13.40;;;17.80;99.90;;;;;;4999502;28;20145;-88
2022/09/06 06:38:55;;;;;;;15.52;12.88;;;17.90;99.90;;;;;;4999177;28;20037;-92
2022/09/06 06:41:23;;;;;;;15.60;12.00;;;17.90;99.90;;;;;;5017534;28;20045;-90
2022/09/06 06:43:54;;;;;;;15.48;13.82;;;18.00;99.90;;;;;;5002741;28;20120;-89
2022/09/06 06:46:21;;;;;;;17.02;12.88;;;18.00;99.90;;;;;;4986497;28;20383;-89
2022/09/06 06:48:47;;;;;;;14.13;12.68;;;18.10;99.90;;;;;;5019096;28;20551;-89
2022/09/06 06:51:19;;;;;;;14.88;12.85;;;18.20;99.90;;;;;;5018798;28;20129;-89
2022/09/06 06:53:46;;;;;;;14.23;11.70;;;18.30;99.90;;;;;;5004294;28;20099;-88
2022/09/06 06:56:27;;;;;;;14.30;11.85;;;18.30;99.90;;;;;;5018460;28;20045;-89
2022/09/06 06:58:56;;;;;;;19.23;14.05;;;18.40;99.90;;;;;;5036679;28;20055;-88
2022/09/06 07:01:23;;;;;;;18.33;14.55;;;18.40;99.90;;;;;;5001640;28;20497;-88
2022/09/06 07:03:49;;;;;;;16.00;14.32;;;18.40;99.90;;;;;;5018838;28;20053;-87
2022/09/06 07:06:15;;;;;;;17.88;14.10;;;18.50;99.90;;;;;;4985831;28;20064;-89
2022/09/06 07:08:42;;;;;;;21.85;14.82;;;18.50;99.90;;;;;;4986194;28;20057;-88
2022/09/06 07:11:09;;;;;;;14.82;12.38;;;18.50;99.90;;;;;;5035550;28;20132;-88
2022/09/06 07:13:36;;;;;;;16.80;14.73;;;18.50;99.90;;;;;;5018060;28;20041;-89
2022/09/06 07:16:10;;;;;;;18.02;16.05;;;18.50;99.90;;;;;;5002127;28;20038;-88
2022/09/06 07:18:40;;;;;;;13.00;9.70;;;18.60;99.90;;;;;;5035440;28;20382;-89
2022/09/06 07:21:13;;;;;;;17.00;14.45;;;18.60;99.90;;;;;;5018627;28;20124;-89
2022/09/06 07:23:40;;;;;;;19.17;14.50;;;18.70;99.90;;;;;;5003239;28;20044;-89
2022/09/06 07:26:06;;;;;;;17.38;14.82;;;18.90;99.90;;;;;;5001877;28;20041;-89
2022/09/06 07:28:32;;;;;;;16.30;14.70;;;19.00;99.90;;;;;;5017826;28;20056;-90
2022/09/06 07:30:59;;;;;;;19.58;14.27;;;19.10;99.90;;;;;;5001597;28;20382;-89
2022/09/06 07:33:25;;;;;;;16.00;14.30;;;19.30;99.90;;;;;;5017927;28;20387;-88
2022/09/06 07:36:10;;;;;;;17.52;12.50;;;19.40;99.90;;;;;;5001697;28;20121;-89
2022/09/06 07:38:35;;;;;;;16.98;12.70;;;19.50;99.90;;;;;;5018313;28;20041;-94
2022/09/06 07:41:04;;;;;;;18.63;12.00;;;19.70;99.90;;;;;;5001950;28;20124;-90
2022/09/06 07:43:30;;;;;;;16.30;13.13;;;19.80;99.90;;;;;;5021374;28;20048;-89
2022/09/06 07:46:02;;;;;;;18.00;11.77;;;20.00;99.90;;;;;;5020872;28;20467;-88
2022/09/06 07:48:30;;;;;;;11.88;10.75;;;20.20;99.90;;;;;;5019492;28;20475;-89
2022/09/06 07:51:06;;;;;;;15.10;11.25;;;20.40;99.90;;;;;;5034291;28;20053;-88
2022/09/06 07:53:32;;;;;;;13.02;10.77;;;20.60;99.90;;;;;;5018025;28;20056;-90
2022/09/06 07:55:59;;;;;;;11.18;10.05;;;20.70;99.90;;;;;;4984880;28;20124;-94
2022/09/06 07:58:25;;;;;;;11.25;10.05;;;20.80;99.90;;;;;;5001154;28;20045;-88
2022/09/06 08:00:50;;;;;;;16.55;10.57;;;20.90;99.90;;;;;;5017307;28;20056;-92
2022/09/06 08:03:16;;;;;;;15.57;10.27;;;21.00;99.90;;;;;;5017491;28;20062;-90
2022/09/06 08:05:42;;;;;;;12.73;9.43;;;21.10;99.90;;;;;;5001315;28;20119;-88
2022/09/06 08:08:07;;;;;;;14.05;9.68;;;21.20;99.90;;;;;;5001045;28;20088;-90
2022/09/06 08:10:33;;;;;;;11.77;9.02;;;21.40;99.90;;;;;;5017117;28;20057;-89
2022/09/06 08:12:59;;;;;;;10.07;9.00;;;21.50;99.90;;;;;;4984592;28;20046;-89
2022/09/06 08:15:24;;;;;;;11.68;9.25;;;21.60;99.90;;;;;;4985051;28;20147;-89
2022/09/06 08:17:50;;;;;;;9.82;8.82;;;21.70;99.90;;;;;;5000929;28;20042;-89
2022/09/06 08:20:16;;;;;;;10.30;8.48;;;21.70;99.90;;;;;;4984751;28;20045;-89
2022/09/06 08:22:42;;;;;;;10.20;9.10;;;21.70;99.90;;;;;;5000844;28;20047;-88
2022/09/06 08:25:09;;;;;;;9.95;8.95;;;21.80;99.90;;;;;;5000604;28;20050;-89
2022/09/06 08:27:35;;;;;;;11.20;9.40;;;21.90;99.90;;;;;;5001077;28;20056;-90
2022/09/06 08:30:00;;;;;;;10.18;9.25;;;22.10;99.90;;;;;;4984704;28;20390;-90
2022/09/06 08:32:26;;;;;;;9.93;8.93;;;22.20;99.90;;;;;;5018309;28;20467;-90
2022/09/06 08:34:52;;;;;;;9.23;8.32;;;22.30;99.90;;;;;;5000636;28;20041;-94
2022/09/06 08:37:17;;;;;;;12.10;8.60;;;22.40;99.90;;;;;;5000833;28;20042;-89
2022/09/06 08:39:43;;;;;;;9.77;8.77;;;22.50;99.90;;;;;;5000501;28;20047;-93
2022/09/06 08:42:09;;;;;;;12.55;8.18;;;22.60;99.90;;;;;;5016386;28;20034;-89
2022/09/06 08:44:41;;;;;;;8.57;7.75;;;22.70;99.90;;;;;;5017386;28;20049;-90
2022/09/06 08:47:08;;;;;;;9.35;7.95;;;22.90;99.90;;;;;;5034846;28;20041;-90
2022/09/06 08:49:45;;;;;;;12.25;9.00;;;23.20;99.90;;;;;;5000818;28;20060;-90
2022/09/06 08:52:24;;;;;;;10.52;8.40;;;23.60;99.90;;;;;;5000181;28;20442;-89
2022/09/06 08:55:32;;;;;;;9.55;8.48;;;24.00;99.90;;;;;;5016559;28;20068;-87
2022/09/06 08:58:36;;;;;;;11.43;8.88;;;24.80;99.90;;;;;;5000155;28;20041;-89
2022/09/06 09:01:08;;;;;;;11.15;8.43;;;25.50;99.90;;;;;;5003200;28;20487;-88
2022/09/06 09:03:36;;;;;;;12.48;8.82;;;26.30;99.90;;;;;;5016272;28;20067;-88
2022/09/06 09:06:08;;;;;;;8.45;7.65;;;26.90;99.90;;;;;;5016262;28;20440;-89
2022/09/06 09:08:57;;;;;;;8.75;7.80;;;27.40;99.90;;;;;;5016660;28;20052;-90
2022/09/06 09:11:27;;;;;;;13.05;7.95;;;27.70;91.80;;;;;;5012796;28;20107;-88
2022/09/06 09:14:15;;;;;;;10.57;8.32;;;27.70;94.40;;;;;;4981021;28;20486;-89
2022/09/06 09:16:41;;;;;;;8.45;7.18;;;27.90;97.30;;;;;;4980594;28;20050;-91
2022/09/06 09:19:08;;;;;;;10.07;7.13;;;28.10;91.20;;;;;;4996894;28;20046;-89
2022/09/06 09:21:37;;;;;;;8.75;7.22;;;28.20;90.70;;;;;;4996354;28;20498;-89
2022/09/06 09:24:11;;;;;;;7.25;5.57;;;28.50;91.10;;;;;;4996891;28;20045;-89
2022/09/06 09:26:52;;;;;;;8.13;7.32;;;29.10;83.40;;;;;;4996306;28;20046;-89
2022/09/06 09:29:18;;;;;;;8.60;7.60;;;29.40;78.80;;;;;;4997173;28;20057;-90
2022/09/06 09:31:49;;;;;;;8.93;8.02;;;29.60;75.30;;;;;;4963809;28;20046;-90
2022/09/06 09:34:32;;;;;;;10.85;6.75;;;29.70;75.30;;;;;;4997546;28;20076;-90
2022/09/06 09:37:23;;;;;;;11.75;7.78;;;29.90;77.30;;;;;;4980253;28;20105;-88
2022/09/06 09:39:53;;;;;;;11.70;8.00;;;30.20;70.40;;;;;;4996515;28;20038;-87
2022/09/06 09:42:29;;;;;;;9.67;6.30;;;30.30;68.30;;;;;;5013692;28;20050;-88
2022/09/06 09:44:55;;;;;;;8.63;7.80;;;30.20;70.00;;;;;;4997612;28;20046;-88
2022/09/06 09:47:27;;;;;;;7.38;6.68;;;30.30;67.70;;;;;;4980943;28;20041;-87
2022/09/06 09:49:57;;;;;;;9.13;6.68;;;30.40;67.70;;;;;;4996135;28;20095;-88
2022/09/06 09:52:28;;;;;;;8.67;7.47;;;30.90;66.80;;;;;;4979919;28;20156;-89
2022/09/06 09:55:02;;;;;;;7.78;6.65;;;31.20;65.20;;;;;;4996383;28;20293;-89
2022/09/06 09:57:31;;;;;;;8.30;6.78;;;31.50;65.00;;;;;;4996714;28;20057;-89
2022/09/06 10:00:02;;;;;;;9.35;6.00;;;31.90;63.60;;;;;;4996221;28;20050;-88
2022/09/06 10:02:39;;;;;;;7.25;5.00;;;32.20;63.40;;;;;;4979884;28;20049;-89
2022/09/06 10:05:11;;;;;;;5.90;5.30;;;32.60;61.90;;;;;;4979673;28;20073;-89
2022/09/06 10:07:57;;;;;;;6.05;5.32;;;33.00;59.50;;;;;;4996615;28;20092;-88
2022/09/06 10:10:34;;;;;;;4.60;4.20;;;33.00;55.70;;;;;;4989678;28;20064;-90
2022/09/06 10:13:15;;;;;;;6.25;4.63;;;33.00;57.90;;;;;;5000443;28;20042;-88
2022/09/06 10:15:42;;;;;;;4.85;4.18;;;33.00;57.40;;;;;;5017551;28;20132;-88
2022/09/06 10:18:38;;;;;;;4.63;4.22;;;33.00;56.90;;;;;;5020308;28;20045;-89
2022/09/06 10:21:17;;;;;;;9.60;6.95;;;33.00;53.10;;;;;;4999349;28;20057;-90
2022/09/06 10:24:26;;;;;;;6.55;5.90;;;32.70;54.80;;;;;;5038163;28;20049;-89
2022/09/06 10:27:03;;;;;;;6.32;5.32;;;32.30;55.60;;;;;;5004121;28;20393;-90
2022/09/06 10:29:59;;;;;;;9.27;6.05;;;32.40;56.60;;;;;;4987582;28;20045;-89
2022/09/06 10:32:46;;;;;;;10.45;6.97;;;32.80;57.20;;;;;;5004167;28;20367;-88
2022/09/06 10:35:18;;;;;;;6.45;5.47;;;33.30;56.60;;;;;;5005163;28;20048;-88
2022/09/06 10:37:50;;;;;;;7.20;6.38;;;33.90;55.50;;;;;;5006219;28;20052;-89
2022/09/06 10:40:40;;;;;;;7.57;6.57;;;34.50;53.10;;;;;;5005618;28;20379;-88
2022/09/06 10:43:13;;;;;;;8.18;7.38;;;35.20;52.00;;;;;;5005662;28;20045;-88
2022/09/06 10:46:00;;;;;;;8.77;6.28;;;35.80;49.90;;;;;;5022628;28;20045;-88
2022/09/06 10:48:30;;;;;;;10.55;5.47;;;36.10;48.40;;;;;;5022368;28;20088;-89
2022/09/06 10:50:55;;;;;;;;;;;36.10;49.60;;;;;;5004124;28;20038;-89
2022/09/06 10:53:21;;;;;;;6.53;4.75;;;36.50;50.20;;;;;;5021182;28;20010;-87
2022/09/06 10:56:16;;;;;;;6.68;4.72;;;36.60;49.30;;;;;;5006685;28;20045;-88
2022/09/06 10:58:52;;;;;;;7.15;5.10;;;36.90;47.90;;;;;;5019691;28;20041;-88
2022/09/06 11:01:46;;;;;;;6.03;5.28;;;37.10;46.80;;;;;;5019260;28;20127;-90
2022/09/06 11:04:22;;;;;;;6.57;4.38;;;36.90;46.50;;;;;;5008109;28;20056;-88
2022/09/06 11:06:54;;;;;;;5.80;4.45;;;36.80;47.40;;;;;;5035989;28;20033;-86
2022/09/06 11:09:34;;;;;;;5.85;5.28;;;36.90;46.10;;;;;;5018405;28;20129;-87
2022/09/06 11:12:24;;;;;;;7.65;5.20;;;37.00;46.50;;;;;;5002124;28;20580;-90
2022/09/06 11:14:50;;;;;;;5.88;5.13;;;37.10;47.30;;;;;;5018544;28;20500;-88
2022/09/06 11:17:40;;;;;;;10.07;5.00;;;37.30;47.30;;;;;;5018484;28;20052;-88
2022/09/06 11:20:12;;;;;;;6.90;5.72;;;37.20;46.50;;;;;;5018240;28;20044;-88
2022/09/06 11:23:15;;;;;;;6.57;4.47;;;37.10;45.60;;;;;;5018560;28;20207;-90
2022/09/06 11:26:15;;;;;;;6.38;3.85;;;36.60;45.90;;;;;;5001549;28;20049;-88
2022/09/06 11:28:45;;;;;;;7.80;4.38;;;36.00;47.80;;;;;;5018058;28;20045;-87
2022/09/06 11:31:28;;;;;;;4.40;3.60;;;35.80;48.40;;;;;;5001431;28;20096;-88
2022/09/06 11:34:05;;;;;;;4.05;3.10;;;35.80;46.80;;;;;;5001882;28;20045;-89
2022/09/06 11:36:49;;;;;;;4.30;3.05;;;35.60;47.80;;;;;;5017939;28;20488;-90
2022/09/06 11:39:29;;;;;;;5.45;3.65;;;35.20;47.60;;;;;;5018447;28;20045;-88
2022/09/06 11:41:56;;;;;;;6.30;3.65;;;34.90;48.20;;;;;;5019328;28;20045;-91
2022/09/06 11:44:55;;;;;;;5.50;4.20;;;34.90;49.20;;;;;;5001993;28;20482;-88
2022/09/06 11:47:38;;;;;;;4.57;3.53;;;34.80;47.50;;;;;;5001767;28;20090;-86
2022/09/06 11:50:19;;;;;;;6.07;4.72;;;34.20;48.00;;;;;;5018785;28;20052;-88
2022/09/06 11:53:14;;;;;;;8.45;3.80;;;33.80;49.30;;;;;;5002751;28;20061;-87
2022/09/06 11:55:47;;;;;;;6.82;4.88;;;33.90;50.30;;;;;;5018508;28;20506;-87
2022/09/06 11:58:16;;;;;;;4.30;3.70;;;34.10;49.60;;;;;;5020327;28;20379;-87
2022/09/06 12:00:43;;;;;;;5.35;2.97;;;34.10;49.90;;;;;;5022481;28;20103;-87
2022/09/06 12:03:29;;;;;;;3.75;2.90;;;34.40;50.20;;;;;;5039964;28;20494;-91
2022/09/06 12:06:34;;;;;;;5.82;3.50;;;34.60;49.50;;;;;;5002399;28;20087;-88
2022/09/06 12:09:00;;;;;;;3.90;2.92;;;34.90;48.70;;;;;;5001372;28;20514;-89
2022/09/06 12:11:43;;;;;;;3.58;2.88;;;35.00;49.10;;;;;;5001396;28;20056;-89
2022/09/06 12:14:27;;;;;;;9.35;3.58;;;34.90;49.00;;;;;;5002403;28;20046;-88
2022/09/06 12:16:59;;;;;;;3.03;2.33;;;34.70;48.60;;;;;;5001946;28;20045;-89
2022/09/06 12:19:40;;;;;;;3.17;2.83;;;34.90;48.90;;;;;;5018180;28;20087;-88
2022/09/06 12:25:00;;;;;;;4.90;3.22;;;35.20;48.50;;;;;;5017425;28;20390;-87
2022/09/06 12:27:34;;;;;;;7.28;3.00;;;35.20;47.90;;;;;;5017708;28;20132;-88
2022/09/06 12:30:04;;;;;;;8.60;3.55;;;35.10;48.00;;;;;;5018011;28;20127;-87
2022/09/06 12:32:35;;;;;;;3.70;2.70;;;34.80;47.50;;;;;;5017072;28;20080;-86
2022/09/06 12:35:04;;;;;;;4.50;2.10;;;34.70;47.60;;;;;;5017395;28;20052;-88
2022/09/06 12:37:36;;;;;;;3.40;2.53;;;34.20;48.40;;;;;;5016870;28;20048;-87
2022/09/06 12:40:04;;;;;;;3.70;2.28;;;33.70;47.90;;;;;;5016974;28;20076;-88
2022/09/06 12:42:34;;;;;;;10.68;2.75;;;33.20;48.80;;;;;;5001080;28;20052;-87
2022/09/06 12:45:03;;;;;;;5.13;2.67;;;32.80;49.80;;;;;;5000800;28;20093;-88
2022/09/06 12:47:34;;;;;;;4.82;2.25;;;32.80;49.80;;;;;;5017151;28;20053;-89
2022/09/06 12:50:16;;;;;;;26.52;3.63;;;32.60;50.40;;;;;;5017973;28;20430;-87
2022/09/06 12:52:46;;;;;;;4.05;2.47;;;32.10;50.40;;;;;;5020362;28;20088;-88
2022/09/06 12:55:38;;;;;;;7.60;2.10;;;31.60;51.00;;;;;;4985084;28;20075;-88
2022/09/06 12:58:06;;;;;;;3.17;1.88;;;31.20;52.10;;;;;;5013327;28;20479;-87
2022/09/06 13:00:43;;;;;;;7.38;2.20;;;31.00;52.00;;;;;;5017188;28;20042;-88
2022/09/06 13:03:32;;;;;;;5.35;2.22;;;30.80;51.90;;;;;;5000566;28;20085;-88
2022/09/06 13:06:04;;;;;;;3.72;1.80;;;30.60;51.60;;;;;;5017337;28;20072;-89
2022/09/06 13:08:52;;;;;;;4.88;2.28;;;30.40;53.30;;;;;;5016925;28;20045;-87